Terminal Aerodrome Forecast
Issued by NWS

Home | Current Version | Previous Version | Text Only | Print | Product List | Glossary On
Versions: 1 2 3 4 5 6 7 8 9 10 11 12 13 14 15 16 17 18 19 20 21
000
FTUS43 KGRR 011900 AAA
TAFAZO
TAF AMD
KAZO 011944Z 0120/0218 VRB05KT P6SM BKN026
     FM011950 15004KT P6SM SCT025
     FM020400 15005KT P6SM OVC080
     FM021100 16006KT 5SM -SHRA BR OVC035
     FM021300 18009KT 2SM TSRA BR OVC015CB
     FM021500 15006KT 4SM BR VCSH OVC005=

USA.gov is the U.S. government's official web portal to all federal, state and local government web resources and services.